createdAt,value
2023-05-15T00:01:27.461Z,11.95
2023-05-15T00:03:55.094Z,11.15
2023-05-15T00:06:21.907Z,10.15
2023-05-15T00:08:48.413Z,11.73
2023-05-15T00:11:14.927Z,12.77
2023-05-15T00:13:41.476Z,12.85
2023-05-15T00:16:08.577Z,12.27
2023-05-15T00:18:35.637Z,14.52
2023-05-15T00:21:02.240Z,14.00
2023-05-15T00:23:28.811Z,15.75
2023-05-15T00:25:55.401Z,15.50
2023-05-15T00:28:21.983Z,14.05
2023-05-15T00:30:48.581Z,15.23
2023-05-15T00:33:15.695Z,16.63
2023-05-15T00:35:42.293Z,16.13
2023-05-15T00:38:08.753Z,15.85
2023-05-15T00:40:36.464Z,17.77
2023-05-15T00:43:03.769Z,18.23
2023-05-15T00:45:30.451Z,19.25
2023-05-15T00:47:58.590Z,17.90
2023-05-15T00:50:25.630Z,18.70
2023-05-15T00:52:52.635Z,24.40
2023-05-15T00:55:19.687Z,22.17
2023-05-15T00:57:47.807Z,19.25
2023-05-15T01:00:16.868Z,18.92
2023-05-15T01:02:44.339Z,16.60
2023-05-15T01:05:11.064Z,19.83
2023-05-15T01:07:45.999Z,17.67
2023-05-15T01:10:13.011Z,19.17
2023-05-15T01:12:40.543Z,19.60
2023-05-15T01:15:07.439Z,17.48
2023-05-15T01:17:33.982Z,20.35
2023-05-15T01:20:01.009Z,20.23
2023-05-15T01:22:42.707Z,19.98
2023-05-15T01:25:18.502Z,19.20
2023-05-15T01:27:49.245Z,20.17
2023-05-15T01:30:23.414Z,20.17
2023-05-15T01:32:55.940Z,22.38
2023-05-15T01:35:41.436Z,19.08
2023-05-15T01:38:22.254Z,19.25
2023-05-15T01:40:53.966Z,22.08
2023-05-15T01:43:23.039Z,22.48
2023-05-15T01:45:49.562Z,22.10
2023-05-15T01:48:17.693Z,23.73
2023-05-15T01:50:45.746Z,23.98
2023-05-15T01:53:12.657Z,25.08
2023-05-15T01:55:39.421Z,24.77
2023-05-15T01:58:06.646Z,25.98
2023-05-15T02:00:33.326Z,26.48
2023-05-15T02:03:00.397Z,28.75
2023-05-15T02:05:27.647Z,32.45
2023-05-15T02:07:54.845Z,33.13
2023-05-15T02:10:22.267Z,27.52
2023-05-15T02:12:50.129Z,26.33
2023-05-15T02:15:17.296Z,26.60
2023-05-15T02:17:44.019Z,26.50
2023-05-15T02:20:10.671Z,27.20
2023-05-15T02:22:37.183Z,26.25
2023-05-15T02:25:03.941Z,30.48
2023-05-15T02:27:45.581Z,29.73
2023-05-15T02:30:17.955Z,31.15
2023-05-15T02:33:23.723Z,31.25
2023-05-15T02:35:57.613Z,28.25
2023-05-15T02:38:29.611Z,29.67
2023-05-15T02:40:57.111Z,29.85
2023-05-15T02:43:24.067Z,28.60
2023-05-15T02:45:51.249Z,31.73
2023-05-15T02:48:17.809Z,28.38
2023-05-15T02:50:44.421Z,30.98
2023-05-15T02:53:11.039Z,31.17
2023-05-15T02:55:38.729Z,51.63
2023-05-15T02:58:05.348Z,65.07
2023-05-15T03:00:31.878Z,49.13
2023-05-15T03:02:58.513Z,51.03
2023-05-15T03:05:25.271Z,57.13
2023-05-15T03:07:54.043Z,66.50
2023-05-15T03:10:23.687Z,63.50
2023-05-15T03:12:50.343Z,66.10
2023-05-15T03:15:17.185Z,146.50
2023-05-15T03:17:43.716Z,168.18
2023-05-15T03:20:11.585Z,99.00
2023-05-15T03:22:38.424Z,99.72
2023-05-15T03:25:09.260Z,109.72
2023-05-15T03:27:38.846Z,111.72
2023-05-15T03:30:10.911Z,98.68
2023-05-15T03:32:45.720Z,105.55
2023-05-15T03:37:51.081Z,104.68
2023-05-15T03:40:24.403Z,104.97
2023-05-15T03:43:01.924Z,107.70
2023-05-15T03:45:37.321Z,92.70
2023-05-15T03:48:07.356Z,100.28
2023-05-15T03:50:45.107Z,90.32
2023-05-15T03:53:16.613Z,98.07
2023-05-15T03:55:50.588Z,101.55
2023-05-15T03:58:18.314Z,109.15
2023-05-15T04:00:47.760Z,101.72
2023-05-15T04:03:24.227Z,105.65
2023-05-15T04:05:55.889Z,96.13
2023-05-15T04:08:29.179Z,97.38
2023-05-15T04:11:23.184Z,97.25
2023-05-15T04:14:06.235Z,109.43
2023-05-15T04:16:46.564Z,107.40
2023-05-15T04:19:19.115Z,108.70
2023-05-15T04:21:59.477Z,101.60
2023-05-15T04:24:41.428Z,103.13
2023-05-15T04:27:10.272Z,105.85
2023-05-15T04:29:41.301Z,104.13
2023-05-15T04:34:37.486Z,110.22
2023-05-15T04:37:09.686Z,103.65
2023-05-15T04:39:40.287Z,100.15
2023-05-15T04:42:10.785Z,114.32
2023-05-15T04:47:23.567Z,106.35
2023-05-15T04:49:56.972Z,113.72
2023-05-15T04:52:31.043Z,112.95
2023-05-15T04:55:02.446Z,97.38
2023-05-15T04:57:32.622Z,104.60
2023-05-15T05:00:00.037Z,99.28
2023-05-15T05:02:39.171Z,95.88
2023-05-15T05:05:07.418Z,90.93
2023-05-15T05:07:35.025Z,99.95
2023-05-15T05:10:02.281Z,98.25
2023-05-15T05:12:30.991Z,93.93
2023-05-15T05:14:57.460Z,91.82
2023-05-15T05:17:24.111Z,84.28
2023-05-15T05:19:50.642Z,91.32
2023-05-15T05:22:17.055Z,86.78
2023-05-15T05:24:43.574Z,90.95
2023-05-15T05:27:10.188Z,88.68
2023-05-15T05:29:36.743Z,92.53
2023-05-15T05:32:03.398Z,98.65
2023-05-15T05:34:29.916Z,95.03
2023-05-15T05:36:56.457Z,92.75
2023-05-15T05:39:22.964Z,90.72
2023-05-15T05:41:49.528Z,89.45
2023-05-15T05:44:16.174Z,94.70
2023-05-15T05:46:42.879Z,84.47
2023-05-15T05:49:09.494Z,85.90
2023-05-15T05:51:39.212Z,87.25
2023-05-15T05:54:05.803Z,85.63
2023-05-15T05:56:32.325Z,76.32
2023-05-15T05:59:01.722Z,74.28
2023-05-15T06:01:28.344Z,69.35
2023-05-15T06:03:56.127Z,77.10
2023-05-15T06:06:23.010Z,61.35
2023-05-15T06:08:49.735Z,59.30
2023-05-15T06:11:16.452Z,58.20
2023-05-15T06:13:43.590Z,52.75
2023-05-15T06:16:10.103Z,58.58
2023-05-15T06:18:36.861Z,68.40
2023-05-15T06:21:03.613Z,64.68
2023-05-15T06:23:32.292Z,72.93
2023-05-15T06:25:58.868Z,71.53
2023-05-15T06:28:25.364Z,71.30
2023-05-15T06:30:52.252Z,71.75
2023-05-15T06:33:18.833Z,70.32
2023-05-15T06:35:45.575Z,77.70
2023-05-15T06:38:12.332Z,83.57
2023-05-15T06:40:38.836Z,78.93
2023-05-15T06:43:05.588Z,79.53
2023-05-15T06:45:32.072Z,85.03
2023-05-15T06:48:01.462Z,76.63
2023-05-15T06:50:28.399Z,89.57
2023-05-15T06:52:54.911Z,80.05
2023-05-15T06:55:21.467Z,84.60
2023-05-15T06:57:47.983Z,86.50
2023-05-15T07:00:15.025Z,92.97
2023-05-15T07:02:41.726Z,90.20
2023-05-15T07:05:08.797Z,95.10
2023-05-15T07:07:35.540Z,101.55
2023-05-15T07:10:02.115Z,93.78
2023-05-15T07:12:28.585Z,88.88
2023-05-15T07:14:55.065Z,84.40
2023-05-15T07:17:21.493Z,84.60
2023-05-15T07:19:48.020Z,76.80
2023-05-15T07:22:14.545Z,77.47
2023-05-15T07:24:41.088Z,71.35
2023-05-15T07:27:07.725Z,75.25
2023-05-15T07:29:34.370Z,71.90
2023-05-15T07:32:01.357Z,78.05
2023-05-15T07:34:28.045Z,73.05
2023-05-15T07:36:54.599Z,69.85
2023-05-15T07:39:21.305Z,67.07
2023-05-15T07:41:48.009Z,65.78
2023-05-15T07:44:14.630Z,62.60
2023-05-15T07:46:41.235Z,62.83
2023-05-15T07:49:07.887Z,55.30
2023-05-15T07:51:34.416Z,49.08
2023-05-15T07:54:01.069Z,53.65
2023-05-15T07:56:28.195Z,50.83
2023-05-15T07:58:54.802Z,48.20
2023-05-15T08:01:21.304Z,46.63
2023-05-15T08:03:47.925Z,43.22
2023-05-15T08:06:14.519Z,43.95
2023-05-15T08:08:41.125Z,39.40
2023-05-15T08:11:07.739Z,40.55
2023-05-15T08:13:34.292Z,38.00
2023-05-15T08:16:00.931Z,37.75
2023-05-15T08:18:27.585Z,35.80
2023-05-15T08:20:54.187Z,37.55
2023-05-15T08:23:20.737Z,34.78
2023-05-15T08:25:47.304Z,35.00
2023-05-15T08:28:14.027Z,34.38
2023-05-15T08:30:40.772Z,34.85
2023-05-15T08:33:07.449Z,32.03
2023-05-15T08:35:34.020Z,30.88
2023-05-15T08:38:00.707Z,28.42
2023-05-15T08:40:38.421Z,25.77
2023-05-15T08:43:13.917Z,23.85
2023-05-15T08:45:41.444Z,22.48
2023-05-15T08:48:11.816Z,24.13
2023-05-15T08:50:40.241Z,22.58
2023-05-15T08:53:06.993Z,23.00
2023-05-15T08:55:33.609Z,21.73
2023-05-15T08:58:00.471Z,22.05
2023-05-15T09:00:27.263Z,22.48
2023-05-15T09:02:54.506Z,22.33
2023-05-15T09:05:21.244Z,20.85
2023-05-15T09:07:48.054Z,20.05
2023-05-15T09:10:15.387Z,21.08
2023-05-15T09:12:46.742Z,21.95
2023-05-15T09:15:18.134Z,20.25
2023-05-15T09:17:45.967Z,20.50
2023-05-15T09:20:26.698Z,19.13
2023-05-15T09:22:53.488Z,21.48
2023-05-15T09:25:39.505Z,25.73
2023-05-15T09:28:07.261Z,22.05
2023-05-15T09:30:34.711Z,21.88
2023-05-15T09:33:03.877Z,21.77
2023-05-15T09:35:38.217Z,23.73
2023-05-15T09:38:10.382Z,21.35
2023-05-15T09:40:38.507Z,22.42
2023-05-15T09:43:05.493Z,23.92
2023-05-15T09:45:32.119Z,21.65
2023-05-15T09:48:05.469Z,21.83
2023-05-15T09:50:35.156Z,21.98
2023-05-15T09:53:01.911Z,21.17
2023-05-15T09:55:32.059Z,19.65
2023-05-15T09:58:08.606Z,21.17
2023-05-15T10:00:35.901Z,20.70
2023-05-15T10:03:03.847Z,20.95
2023-05-15T10:05:42.460Z,19.52
2023-05-15T10:08:11.453Z,18.88
2023-05-15T10:10:38.250Z,20.35
2023-05-15T10:13:06.089Z,18.85
2023-05-15T10:15:33.196Z,19.05
2023-05-15T10:18:00.747Z,19.17
2023-05-15T10:20:27.572Z,18.17
2023-05-15T10:22:56.205Z,17.83
2023-05-15T10:25:42.400Z,19.65
2023-05-15T10:28:10.366Z,18.13
2023-05-15T10:30:37.476Z,16.80
2023-05-15T10:33:07.987Z,16.85
2023-05-15T10:38:04.048Z,17.67
2023-05-15T10:40:30.917Z,16.63
2023-05-15T10:43:00.533Z,15.48
2023-05-15T10:45:28.116Z,13.95
2023-05-15T10:47:55.086Z,14.75
2023-05-15T10:50:21.762Z,13.82
2023-05-15T10:52:52.279Z,15.27
2023-05-15T10:55:19.157Z,13.05
2023-05-15T10:57:47.166Z,12.55
2023-05-15T11:00:23.206Z,12.70
2023-05-15T11:02:53.655Z,13.13
2023-05-15T11:05:20.784Z,13.35
2023-05-15T11:08:15.331Z,14.13
2023-05-15T11:10:41.966Z,12.65
2023-05-15T11:13:08.464Z,12.85
2023-05-15T11:15:42.549Z,10.00
2023-05-15T11:18:12.307Z,10.02
2023-05-15T11:20:52.097Z,10.18
2023-05-15T11:23:22.563Z,10.98
2023-05-15T11:25:58.751Z,11.18
2023-05-15T11:28:26.224Z,11.80
2023-05-15T11:30:54.599Z,11.02
2023-05-15T11:33:21.303Z,11.77
2023-05-15T11:35:48.934Z,12.80
2023-05-15T11:38:20.198Z,14.45
2023-05-15T11:40:52.849Z,12.23
2023-05-15T11:43:26.362Z,12.20
2023-05-15T11:45:58.341Z,11.98
2023-05-15T11:48:31.319Z,10.55
2023-05-15T11:50:57.863Z,11.18
2023-05-15T11:53:24.528Z,10.48
2023-05-15T11:55:52.923Z,12.07
2023-05-15T11:58:21.254Z,12.27
2023-05-15T12:00:49.333Z,10.77
2023-05-15T12:03:24.844Z,10.55
2023-05-15T12:05:59.013Z,10.27
2023-05-15T12:08:31.722Z,10.30
2023-05-15T12:10:58.946Z,12.00
2023-05-15T12:13:25.573Z,10.85
2023-05-15T12:15:52.131Z,11.07
2023-05-15T12:18:18.698Z,12.10
2023-05-15T12:20:46.780Z,11.55
2023-05-15T12:23:17.246Z,11.82
2023-05-15T12:25:45.125Z,10.00
2023-05-15T12:28:12.119Z,11.15
2023-05-15T12:30:39.302Z,10.95
2023-05-15T12:33:07.186Z,10.90
2023-05-15T12:35:35.466Z,10.65
2023-05-15T12:38:05.791Z,9.18
2023-05-15T12:40:36.725Z,8.95
2023-05-15T12:43:07.704Z,9.32
2023-05-15T12:45:36.356Z,8.43
2023-05-15T12:48:03.893Z,9.65
2023-05-15T12:50:32.839Z,11.23
2023-05-15T12:53:03.558Z,9.43
2023-05-15T12:55:32.595Z,10.35
2023-05-15T12:58:04.464Z,8.65
2023-05-15T13:00:32.132Z,9.73
2023-05-15T13:02:59.356Z,9.40
2023-05-15T13:05:26.935Z,8.48
2023-05-15T13:07:53.940Z,9.23
2023-05-15T13:10:23.236Z,9.43
2023-05-15T13:12:54.249Z,11.18
2023-05-15T13:15:43.478Z,9.95
2023-05-15T13:18:10.103Z,9.13
2023-05-15T13:20:39.984Z,9.23
2023-05-15T13:23:07.494Z,10.07
2023-05-15T13:25:34.434Z,9.55
2023-05-15T13:28:03.561Z,9.50
2023-05-15T13:30:30.430Z,10.20
2023-05-15T13:32:57.172Z,8.52
2023-05-15T13:35:23.992Z,10.15
2023-05-15T13:37:50.821Z,9.15
2023-05-15T13:40:17.382Z,9.60
2023-05-15T13:42:44.408Z,8.73
2023-05-15T13:45:15.560Z,9.93
2023-05-15T13:47:43.147Z,8.43
2023-05-15T13:50:11.492Z,8.68
2023-05-15T13:52:38.664Z,8.88
2023-05-15T13:55:06.429Z,9.32
2023-05-15T13:57:33.003Z,9.10
2023-05-15T13:59:59.518Z,10.07
2023-05-15T14:02:26.702Z,9.43
2023-05-15T14:04:54.012Z,10.85
2023-05-15T14:07:23.029Z,10.45
2023-05-15T14:09:50.432Z,9.52
2023-05-15T14:12:17.399Z,11.73
2023-05-15T14:14:46.734Z,10.30
2023-05-15T14:17:13.684Z,18.23
2023-05-15T14:19:40.644Z,8.95
2023-05-15T14:22:07.181Z,10.00
2023-05-15T14:24:33.695Z,9.65
2023-05-15T14:27:00.223Z,9.13
2023-05-15T14:29:26.713Z,9.10
2023-05-15T14:31:53.419Z,9.70
2023-05-15T14:34:22.603Z,10.68
2023-05-15T14:36:49.868Z,10.50
2023-05-15T14:39:16.889Z,11.50
2023-05-15T14:41:43.786Z,10.60
2023-05-15T14:44:10.456Z,10.90
2023-05-15T14:46:38.007Z,10.88
2023-05-15T14:49:05.490Z,11.82
2023-05-15T14:51:32.092Z,13.82
2023-05-15T14:53:58.914Z,16.50
2023-05-15T14:56:25.911Z,17.23
2023-05-15T14:58:53.746Z,18.30
2023-05-15T15:01:20.737Z,17.42
2023-05-15T15:03:48.046Z,17.00
2023-05-15T15:06:15.060Z,15.68
2023-05-15T15:08:41.598Z,15.00
2023-05-15T15:11:08.797Z,13.73
2023-05-15T15:13:35.490Z,13.18
2023-05-15T15:16:02.058Z,12.43
2023-05-15T15:18:28.660Z,13.63
2023-05-15T15:20:55.234Z,14.02
2023-05-15T15:23:22.648Z,12.05
2023-05-15T15:25:49.160Z,12.50
2023-05-15T15:28:15.647Z,11.85
2023-05-15T15:30:42.187Z,12.98
2023-05-15T15:33:08.717Z,11.52
2023-05-15T15:35:35.372Z,13.90
2023-05-15T15:38:01.841Z,12.45
2023-05-15T15:40:29.786Z,12.43
2023-05-15T15:42:56.616Z,13.05
2023-05-15T15:45:23.176Z,13.23
2023-05-15T15:47:49.718Z,14.35
2023-05-15T15:50:16.739Z,12.98
2023-05-15T15:52:43.417Z,13.30
2023-05-15T15:55:10.179Z,12.73
2023-05-15T15:57:36.959Z,12.35
2023-05-15T16:00:04.117Z,12.45
2023-05-15T16:02:30.928Z,13.00
2023-05-15T16:04:57.478Z,11.23
2023-05-15T16:07:24.075Z,11.80
2023-05-15T16:10:03.786Z,10.50
2023-05-15T16:12:37.517Z,16.77
2023-05-15T16:15:13.335Z,12.70
2023-05-15T16:17:51.203Z,13.68
2023-05-15T16:20:17.952Z,13.75
2023-05-15T16:22:44.512Z,14.20
2023-05-15T16:25:11.172Z,13.82
2023-05-15T16:27:37.682Z,14.07
2023-05-15T16:30:04.535Z,14.00
2023-05-15T16:32:31.820Z,13.13
2023-05-15T16:34:58.513Z,13.55
2023-05-15T16:37:25.082Z,12.18
2023-05-15T16:39:51.877Z,15.13
2023-05-15T16:42:18.464Z,15.32
2023-05-15T16:44:44.945Z,16.15
2023-05-15T16:47:11.462Z,17.58
2023-05-15T16:49:38.021Z,16.40
2023-05-15T16:52:04.877Z,15.40
2023-05-15T16:54:31.429Z,16.38
2023-05-15T16:56:58.085Z,15.90
2023-05-15T16:59:24.592Z,15.45
2023-05-15T17:01:51.279Z,14.15
2023-05-15T17:04:17.883Z,15.80
2023-05-15T17:06:44.510Z,15.98
2023-05-15T17:09:11.064Z,14.23
2023-05-15T17:11:37.543Z,14.07
2023-05-15T17:14:04.157Z,14.60
2023-05-15T17:16:30.956Z,13.73
2023-05-15T17:18:57.563Z,14.55
2023-05-15T17:21:24.136Z,12.75
2023-05-15T17:23:52.179Z,13.18
2023-05-15T17:26:19.527Z,14.68
2023-05-15T17:28:46.110Z,11.00
2023-05-15T17:31:12.646Z,11.52
2023-05-15T17:33:39.194Z,11.07
2023-05-15T17:36:05.962Z,11.07
2023-05-15T17:38:32.574Z,11.77
2023-05-15T17:40:59.293Z,11.38
2023-05-15T17:43:25.799Z,10.68
2023-05-15T17:45:52.400Z,14.45
2023-05-15T17:48:18.953Z,14.40
2023-05-15T17:50:45.450Z,11.35
2023-05-15T17:53:12.050Z,10.77
2023-05-15T17:55:38.663Z,10.30
2023-05-15T17:58:05.299Z,11.73
2023-05-15T18:00:31.879Z,11.75
2023-05-15T18:02:58.601Z,10.88
2023-05-15T18:05:25.561Z,10.52
2023-05-15T18:07:52.432Z,12.73
2023-05-15T18:10:18.977Z,11.90
2023-05-15T18:12:45.777Z,12.05
2023-05-15T18:15:12.379Z,12.68
2023-05-15T18:17:39.005Z,12.52
2023-05-15T18:20:06.276Z,11.75
2023-05-15T18:22:32.866Z,16.90
2023-05-15T18:24:59.637Z,17.00
2023-05-15T18:27:26.303Z,16.67
2023-05-15T18:29:52.832Z,17.08
2023-05-15T18:32:19.452Z,20.73
2023-05-15T18:34:47.129Z,20.23
2023-05-15T18:37:13.876Z,20.33
2023-05-15T18:39:41.897Z,19.92
2023-05-15T18:42:08.669Z,20.55
2023-05-15T18:44:35.959Z,20.60
2023-05-15T18:47:02.930Z,18.40
2023-05-15T18:49:29.748Z,17.23
2023-05-15T18:51:56.636Z,17.88
2023-05-15T18:54:23.200Z,19.35
2023-05-15T18:56:49.852Z,20.67
2023-05-15T18:59:16.458Z,19.27
2023-05-15T19:01:43.109Z,16.90
2023-05-15T19:04:09.745Z,19.08
2023-05-15T19:06:36.295Z,18.40
2023-05-15T19:09:03.305Z,19.00
2023-05-15T19:11:29.884Z,17.70
2023-05-15T19:13:56.545Z,17.80
2023-05-15T19:16:26.934Z,18.58
2023-05-15T19:18:54.251Z,19.65
2023-05-15T19:21:21.163Z,18.80
2023-05-15T19:23:51.313Z,18.05
2023-05-15T19:26:17.960Z,17.30
2023-05-15T19:28:44.555Z,16.55
2023-05-15T19:31:20.317Z,17.85
2023-05-15T19:33:47.257Z,18.23
2023-05-15T19:36:14.096Z,17.20
2023-05-15T19:38:40.613Z,18.60
2023-05-15T19:41:08.073Z,16.27
2023-05-15T19:43:36.153Z,15.70
2023-05-15T19:46:03.084Z,16.17
2023-05-15T19:48:29.717Z,15.63
2023-05-15T19:50:56.292Z,15.20
2023-05-15T19:53:23.443Z,14.20
2023-05-15T19:55:50.148Z,15.20
2023-05-15T19:58:16.793Z,14.60
2023-05-15T20:00:44.156Z,14.75
2023-05-15T20:03:10.851Z,16.27
2023-05-15T20:05:43.545Z,14.40
2023-05-15T20:08:10.360Z,14.43
2023-05-15T20:10:36.891Z,14.20
2023-05-15T20:13:03.669Z,15.35
2023-05-15T20:15:31.658Z,15.10
2023-05-15T20:17:58.217Z,14.63
2023-05-15T20:20:25.488Z,14.15
2023-05-15T20:22:52.286Z,14.48
2023-05-15T20:25:18.863Z,14.23
2023-05-15T20:27:45.479Z,16.95
2023-05-15T20:30:12.160Z,14.90
2023-05-15T20:32:38.831Z,13.80
2023-05-15T20:35:06.010Z,12.98
2023-05-15T20:37:33.301Z,13.23
2023-05-15T20:40:00.374Z,13.07
2023-05-15T20:42:27.976Z,12.57
2023-05-15T20:44:54.593Z,12.35
2023-05-15T20:47:21.297Z,12.50
2023-05-15T20:49:47.915Z,13.13
2023-05-15T20:52:14.435Z,11.80
2023-05-15T20:54:41.341Z,11.98
2023-05-15T20:57:07.880Z,10.30
2023-05-15T20:59:34.452Z,9.75
2023-05-15T21:02:01.496Z,11.88
2023-05-15T21:04:30.054Z,11.15
2023-05-15T21:06:56.620Z,11.55
2023-05-15T21:09:23.160Z,13.15
2023-05-15T21:11:49.799Z,11.50
2023-05-15T21:14:16.394Z,11.02
2023-05-15T21:16:43.012Z,11.40
2023-05-15T21:19:09.771Z,10.88
2023-05-15T21:21:36.655Z,10.50
2023-05-15T21:24:04.010Z,10.25
2023-05-15T21:26:31.092Z,10.65
2023-05-15T21:28:59.184Z,10.10
2023-05-15T21:31:26.904Z,11.30
2023-05-15T21:33:54.112Z,12.18
2023-05-15T21:36:21.073Z,10.23
2023-05-15T21:38:48.114Z,9.80
2023-05-15T21:41:15.394Z,9.40
2023-05-15T21:43:47.339Z,10.55
2023-05-15T21:46:14.734Z,9.27
2023-05-15T21:48:41.453Z,9.50
2023-05-15T21:51:09.215Z,10.00
2023-05-15T21:53:36.196Z,10.32
2023-05-15T21:56:03.540Z,12.07
2023-05-15T21:58:32.071Z,10.23
2023-05-15T22:01:00.276Z,10.75
2023-05-15T22:03:27.308Z,10.88
2023-05-15T22:05:54.568Z,12.25
2023-05-15T22:08:23.035Z,11.68
2023-05-15T22:10:49.922Z,10.82
2023-05-15T22:13:18.344Z,10.85
2023-05-15T22:15:45.133Z,12.00
2023-05-15T22:18:13.406Z,11.18
2023-05-15T22:20:40.093Z,13.23
2023-05-15T22:23:07.709Z,11.20
2023-05-15T22:25:35.545Z,11.02
2023-05-15T22:28:02.740Z,10.80
2023-05-15T22:30:37.351Z,11.07
2023-05-15T22:33:04.542Z,10.05
2023-05-15T22:35:31.349Z,10.65
2023-05-15T22:37:59.923Z,11.77
2023-05-15T22:40:27.195Z,12.18
2023-05-15T22:42:54.320Z,12.38
2023-05-15T22:45:21.792Z,12.52
2023-05-15T22:47:52.091Z,13.75
2023-05-15T22:50:18.906Z,12.57
2023-05-15T22:52:45.759Z,12.05
2023-05-15T22:55:13.347Z,13.70
2023-05-15T22:57:40.295Z,15.32
2023-05-15T23:00:08.135Z,17.30
2023-05-15T23:02:38.778Z,20.50
2023-05-15T23:05:06.031Z,22.15
2023-05-15T23:07:32.945Z,22.95
2023-05-15T23:10:00.931Z,22.80
2023-05-15T23:12:28.130Z,21.45
2023-05-15T23:14:54.733Z,21.52
2023-05-15T23:17:26.336Z,20.98
2023-05-15T23:19:53.682Z,23.03
2023-05-15T23:22:21.532Z,22.05
2023-05-15T23:24:49.216Z,22.60
2023-05-15T23:27:16.247Z,23.73
2023-05-15T23:29:45.511Z,25.63
2023-05-15T23:32:14.353Z,23.92
2023-05-15T23:34:41.318Z,24.10
2023-05-15T23:37:08.579Z,26.42
2023-05-15T23:39:36.189Z,25.55
2023-05-15T23:42:02.786Z,24.90
2023-05-15T23:44:29.772Z,23.23
2023-05-15T23:46:57.879Z,21.75
2023-05-15T23:49:25.466Z,24.17
2023-05-15T23:51:52.030Z,22.02
2023-05-15T23:54:19.911Z,21.73
2023-05-15T23:56:47.265Z,21.17
2023-05-15T23:59:14.133Z,20.00
